Time;durP1;ratioP1;P1;durP2;ratioP2;P2;SDS_P1;SDS_P2;PMS_P1;PMS_P2;Temp;Humidity;BMP_temperature;BMP_pressure;BME280_temperature;BME280_humidity;BME280_pressure;Samples;Min_cycle;Max_cycle;Signal;HPM_P1;HPM_P2
2022/11/24 03:44:20;;;;;;;45.58;21.52;;;;;;;7.37;59.59;98741.72;5300782;26;20067;-96
2022/11/24 05:41:48;;;;;;;58.65;22.87;;;;;;;6.67;59.56;98871.66;5322608;26;20068;-95
2022/11/24 06:11:54;;;;;;;;;;;;;;;;;;;;;
2022/11/24 06:18:00;;;;;;;;;;;;;;;;;;;;;
2022/11/24 06:21:01;;;;;;;52.05;19.10;;;;;;;6.72;59.56;98916.31;5209826;27;20199;-96
2022/11/24 06:27:08;;;;;;;;;;;;;;;;;;;;;
2022/11/24 06:44:02;;;;;;;;;;;;;;;;;;;;;
2022/11/24 06:46:38;;;;;;;;;;;;;;;;;;;;;
2022/11/24 06:49:09;;;;;;;54.75;21.00;;;;;;;7.05;59.57;98955.84;5335943;26;35798;-93
2022/11/24 06:52:10;;;;;;;54.83;21.52;;;;;;;6.89;59.56;98957.22;5301620;27;20052;-94
2022/11/24 06:55:05;;;;;;;52.42;20.58;;;;;;;6.92;59.56;98958.84;5321067;27;20087;-93
2022/11/24 06:57:57;;;;;;;53.08;19.65;;;;;;;6.93;59.56;98955.38;5305787;27;20075;-94
2022/11/24 07:00:22;;;;;;;62.28;20.67;;;;;;;6.98;59.57;98959.50;5323268;26;20064;-93
2022/11/24 07:02:47;;;;;;;56.30;20.77;;;;;;;7.08;59.57;98967.84;5312128;26;20416;-93
2022/11/24 07:05:13;;;;;;;44.35;18.40;;;;;;;6.98;59.57;98967.28;5202113;27;20066;-94
2022/11/24 07:07:40;;;;;;;54.95;20.08;;;;;;;6.96;59.57;98974.25;5200561;27;20306;-93
2022/11/24 07:10:06;;;;;;;51.33;19.45;;;;;;;6.90;59.56;98976.16;5202205;27;20074;-94
2022/11/24 07:12:35;;;;;;;50.92;19.73;;;;;;;6.99;59.57;98974.16;5203067;27;20114;-95
2022/11/24 07:15:00;;;;;;;54.65;20.20;;;;;;;6.95;59.57;98982.91;5202334;27;20069;-95
2022/11/24 07:17:27;;;;;;;54.15;19.77;;;;;;;7.08;59.57;98991.97;5203908;27;20325;-96
2022/11/24 07:20:01;;;;;;;56.05;20.77;;;;;;;7.12;59.58;98985.00;5223405;27;20111;-95
2022/11/24 07:22:26;;;;;;;52.88;20.33;;;;;;;7.05;59.57;98996.41;5201183;27;20057;-96
2022/11/24 07:24:52;;;;;;;50.10;20.30;;;;;;;7.27;59.58;98997.44;5200863;27;20069;-95
2022/11/24 07:27:17;;;;;;;44.58;18.15;;;;;;;7.22;59.58;99003.66;5236681;27;20105;-95
2022/11/24 07:29:44;;;;;;;49.55;18.50;;;;;;;7.43;59.59;99010.78;5200983;27;20132;-95
2022/11/24 07:32:09;;;;;;;46.17;18.48;;;;;;;7.42;59.59;99006.50;5202711;27;20065;-95
2022/11/24 07:34:44;;;;;;;41.90;18.20;;;;;;;7.43;59.59;99009.94;5236507;27;26059;-92
2022/11/24 07:38:00;;;;;;;50.25;19.67;;;;;;;7.55;59.60;99005.19;5221498;27;20053;-94
2022/11/24 07:40:31;;;;;;;52.35;19.15;;;;;;;7.60;59.60;99011.09;5257141;27;20653;-93
2022/11/24 07:43:33;;;;;;;45.00;16.30;;;;;;;7.68;59.60;99008.25;5209902;27;23973;-92
2022/11/24 07:45:58;;;;;;;45.35;15.98;;;;;;;7.55;59.60;99000.00;5279725;27;20071;-95
2022/11/24 07:48:24;;;;;;;43.85;17.60;;;;;;;7.65;59.60;99016.97;5243211;27;20383;-93
2022/11/24 07:50:49;;;;;;;41.10;16.87;;;;;;;7.67;59.60;99022.09;5237688;27;28663;-94
2022/11/24 07:53:15;;;;;;;39.15;15.32;;;;;;;7.46;59.59;99018.44;5237096;27;22293;-94
2022/11/24 07:55:40;;;;;;;45.53;18.67;;;;;;;7.54;59.59;99016.44;5236119;27;28666;-91
2022/11/24 08:03:31;;;;;;;;;;;;;;;;;;;;;
2022/11/24 08:05:58;;;;;;;49.67;17.70;;;;;;;7.68;59.60;99022.06;5286806;27;35749;-96
2022/11/24 08:08:23;;;;;;;50.67;18.37;;;;;;;7.58;59.60;99018.06;5360147;26;20097;-95
2022/11/24 08:10:52;;;;;;;43.90;18.15;;;;;;;7.58;59.60;99022.41;5284210;26;20101;-95
2022/11/24 08:13:18;;;;;;;51.15;19.60;;;;;;;7.47;59.60;99025.31;5282768;27;20084;-90
2022/11/24 08:22:44;;;;;;;53.90;18.80;;;;;;;7.54;59.59;99026.81;5278364;26;20104;-96
2022/11/24 08:25:17;;;;;;;55.05;18.87;;;;;;;7.43;59.59;99034.06;5283967;26;20071;-90
2022/11/24 08:27:42;;;;;;;46.42;19.42;;;;;;;7.62;59.61;99034.38;5283651;26;20048;-92
2022/11/24 08:30:54;;;;;;;49.20;20.00;;;;;;;7.69;59.61;99041.88;5283083;27;20414;-96
2022/11/24 08:33:20;;;;;;;39.47;17.25;;;;;;;7.59;59.60;99043.06;5315288;26;20463;-93
2022/11/24 08:35:54;;;;;;;45.17;18.05;;;;;;;7.57;59.60;99044.00;5283042;26;20053;-94
2022/11/24 08:38:20;;;;;;;45.12;17.92;;;;;;;7.73;59.61;99041.78;5283582;27;20053;-93
2022/11/24 08:48:57;;;;;;;37.33;14.85;;;;;;;7.83;59.62;99053.56;5276737;27;20084;-95
2022/11/24 08:54:45;;;;;;;48.53;17.77;;;;;;;7.77;59.61;99057.16;5253347;27;20103;-96
2022/11/24 08:57:13;;;;;;;39.85;15.55;;;;;;;7.69;59.61;99052.25;5261165;27;20073;-96
2022/11/24 08:59:46;;;;;;;44.70;16.73;;;;;;;7.50;59.60;99061.47;5219824;27;20065;-96
2022/11/24 09:06:10;;;;;;;47.25;16.50;;;;;;;7.73;59.61;99059.91;5277586;27;20458;-96
2022/11/24 09:09:27;;;;;;;;;;;;;;;;;;;;;
2022/11/24 09:12:00;;;;;;;40.28;15.98;;;;;;;7.72;59.60;99066.84;5293385;26;36761;-96
2022/11/24 09:14:28;;;;;;;48.33;16.75;;;;;;;7.64;59.60;99061.91;5362606;26;20031;-96
2022/11/24 09:17:03;;;;;;;45.72;17.58;;;;;;;7.41;59.59;99072.13;5301875;26;27122;-92
2022/11/24 09:19:28;;;;;;;46.22;17.27;;;;;;;7.45;59.59;99072.88;5361416;26;20057;-96
2022/11/24 09:21:54;;;;;;;45.20;17.33;;;;;;;7.74;59.61;99074.56;5366140;26;20140;-95
2022/11/24 09:24:25;;;;;;;48.87;16.90;;;;;;;7.80;59.61;99075.22;5366586;26;20072;-96
2022/11/24 09:26:54;;;;;;;45.67;17.62;;;;;;;7.77;59.61;99075.31;5396041;26;20130;-96
2022/11/24 09:29:20;;;;;;;48.13;17.90;;;;;;;7.78;59.61;99081.34;5294809;26;20036;-96
2022/11/24 09:31:45;;;;;;;47.83;18.10;;;;;;;7.73;59.61;99078.03;5289595;26;20061;-91
2022/11/24 09:34:12;;;;;;;41.03;17.08;;;;;;;7.65;59.60;99086.91;5289375;26;24620;-95
2022/11/24 09:36:39;;;;;;;40.42;18.08;;;;;;;7.62;59.61;99088.75;5288079;26;20040;-95
2022/11/24 09:39:04;;;;;;;43.97;17.33;;;;;;;7.65;59.60;99086.91;5287848;26;20427;-95
2022/11/24 09:41:56;;;;;;;42.65;16.37;;;;;;;7.75;59.60;99091.78;5287284;26;20111;-94
2022/11/24 09:44:53;;;;;;;46.35;17.17;;;;;;;7.84;59.62;99088.94;5305243;26;20052;-92
2022/11/24 09:47:34;;;;;;;42.40;17.12;;;;;;;7.65;59.60;99086.06;5333241;26;20652;-94
2022/11/24 09:50:04;;;;;;;42.67;15.60;;;;;;;7.64;59.61;99086.97;5324235;26;20108;-93
2022/11/24 09:53:00;;;;;;;48.58;17.23;;;;;;;7.42;59.59;99086.75;5323056;26;20080;-92
2022/11/24 09:55:48;;;;;;;45.25;17.48;;;;;;;7.55;59.60;99090.66;5307023;26;20106;-92
2022/11/24 09:58:37;;;;;;;50.25;17.75;;;;;;;7.52;59.59;99090.75;5324846;26;20487;-95
2022/11/24 10:01:32;;;;;;;46.83;17.20;;;;;;;7.65;59.60;99086.06;5309532;26;20052;-90
2022/11/24 10:04:00;;;;;;;38.80;14.70;;;;;;;7.86;59.61;99090.59;5305950;26;20056;-94
2022/11/24 10:06:33;;;;;;;56.20;19.35;;;;;;;7.89;59.62;99100.00;5306549;26;20444;-94
2022/11/24 10:09:28;;;;;;;38.88;16.80;;;;;;;7.73;59.61;99088.41;5308231;26;20067;-95
2022/11/24 10:12:01;;;;;;;36.55;15.73;;;;;;;7.80;59.61;99092.50;5309393;26;20078;-94
2022/11/24 10:14:56;;;;;;;39.63;15.95;;;;;;;7.78;59.61;99091.69;5288710;26;20677;-91
2022/11/24 10:17:33;;;;;;;42.20;15.77;;;;;;;7.93;59.62;99101.59;5292652;26;21123;-90
2022/11/24 10:20:11;;;;;;;45.15;15.68;;;;;;;7.97;59.62;99103.19;5326265;26;20063;-95
2022/11/24 10:22:40;;;;;;;40.55;15.45;;;;;;;7.87;59.62;99104.38;5291878;26;20024;-95
2022/11/24 10:25:15;;;;;;;43.72;16.65;;;;;;;7.99;59.63;99101.37;5324983;26;20075;-95
2022/11/24 10:27:43;;;;;;;39.65;15.88;;;;;;;8.28;59.63;99103.91;5305689;26;20056;-94
2022/11/24 10:30:18;;;;;;;36.15;15.07;;;;;;;8.28;59.63;99096.13;5306982;26;20055;-94
2022/11/24 10:32:48;;;;;;;42.42;16.05;;;;;;;8.23;59.63;99094.56;5307299;26;20127;-95
2022/11/24 10:35:18;;;;;;;39.00;14.80;;;;;;;8.41;59.64;99099.19;5325616;26;20116;-94
2022/11/24 10:37:49;;;;;;;35.55;15.32;;;;;;;8.54;59.65;99091.84;5324514;26;20063;-94
2022/11/24 10:51:58;;;;;;;41.65;16.37;;;;;;;8.72;59.66;99114.53;5361730;26;20080;-95
2022/11/24 10:59:42;;;;;;;;;;;;;;;;;;;;;
2022/11/24 11:07:39;;;;;;;36.88;13.50;;;;;;;9.02;59.68;99117.81;5169576;27;20078;-89
2022/11/24 11:10:23;;;;;;;24.42;10.82;;;;;;;8.97;59.68;99119.72;5279736;27;20526;-90
2022/11/24 11:12:49;;;;;;;30.35;12.00;;;;;;;8.99;59.68;99137.81;5278960;27;20057;-89
2022/11/24 11:15:48;;;;;;;30.08;12.25;;;;;;;8.89;59.66;99132.13;5296999;27;20081;-88
2022/11/24 11:18:17;;;;;;;30.08;12.27;;;;;;;8.95;59.67;99124.13;5280119;27;20409;-88
2022/11/24 11:21:30;;;;;;;29.85;12.45;;;;;;;8.96;59.67;99132.75;5260739;27;20061;-94
2022/11/24 11:24:22;;;;;;;26.85;11.63;;;;;;;9.07;59.68;99130.63;5292026;27;20124;-93
2022/11/24 11:26:47;;;;;;;29.67;12.48;;;;;;;9.09;59.68;99131.44;5273508;27;29334;-89
2022/11/24 11:29:15;;;;;;;35.25;12.75;;;;;;;9.30;59.70;99127.22;5259990;27;20420;-89
2022/11/24 11:32:03;;;;;;;23.87;10.25;;;;;;;9.52;59.71;99128.97;5279544;26;20057;-92
2022/11/24 11:34:32;;;;;;;29.95;11.55;;;;;;;9.72;59.71;99122.16;5298099;26;20127;-91
2022/11/24 11:36:58;;;;;;;26.60;10.35;;;;;;;9.81;59.73;99132.19;5278143;27;20425;-89
2022/11/24 11:39:29;;;;;;;25.27;11.82;;;;;;;9.68;59.71;99130.94;5260245;27;20076;-90
2022/11/24 11:42:20;;;;;;;25.27;11.00;;;;;;;9.98;59.73;99137.59;5242562;27;20071;-90
2022/11/24 11:45:09;;;;;;;23.92;9.93;;;;;;;9.90;59.72;99131.81;5259808;27;20089;-92
2022/11/24 11:47:47;;;;;;;27.77;11.50;;;;;;;10.10;59.74;99125.84;5256065;27;20404;-91
2022/11/24 11:50:14;;;;;;;21.52;9.25;;;;;;;9.93;59.73;99129.09;5274037;27;20062;-91
2022/11/24 11:53:18;;;;;;;22.13;8.60;;;;;;;9.78;59.72;99142.72;5256348;27;20121;-90
2022/11/24 11:56:02;;;;;;;21.77;8.88;;;;;;;9.69;59.71;99136.09;5271818;27;20113;-92
2022/11/24 11:59:00;;;;;;;21.85;9.07;;;;;;;9.63;59.71;99143.28;5256252;27;20462;-92
2022/11/24 12:01:54;;;;;;;18.75;8.85;;;;;;;9.52;59.71;99139.34;5272897;27;20439;-92
2022/11/24 12:04:43;;;;;;;21.98;9.95;;;;;;;9.54;59.71;99144.47;5257740;27;20471;-91
2022/11/24 12:07:16;;;;;;;22.62;10.70;;;;;;;9.75;59.72;99137.63;5262119;27;20065;-91
2022/11/24 12:10:00;;;;;;;20.25;8.38;;;;;;;9.88;59.73;99135.38;5259314;26;20045;-92
2022/11/24 12:12:48;;;;;;;20.17;8.93;;;;;;;9.81;59.72;99140.84;5277813;27;20057;-91
2022/11/24 12:15:31;;;;;;;20.33;9.40;;;;;;;9.55;59.71;99146.19;5297654;27;20110;-91
2022/11/24 12:18:08;;;;;;;17.25;8.23;;;;;;;9.54;59.70;99149.69;5295886;27;20057;-91
2022/11/24 12:20:49;;;;;;;19.30;8.27;;;;;;;9.64;59.71;99144.97;5287916;27;20025;-92
2022/11/24 12:23:42;;;;;;;18.83;8.35;;;;;;;9.58;59.71;99145.22;5283199;27;20057;-91
2022/11/24 12:26:12;;;;;;;28.40;10.13;;;;;;;9.62;59.71;99149.38;5295925;27;20059;-91
2022/11/24 12:28:51;;;;;;;18.77;8.77;;;;;;;9.66;59.72;99149.19;5278307;27;20745;-91
2022/11/24 12:31:35;;;;;;;18.35;8.90;;;;;;;9.72;59.72;99138.59;5277580;27;20424;-91
2022/11/24 12:34:19;;;;;;;16.27;7.80;;;;;;;9.71;59.71;99147.31;5276430;27;20377;-88
2022/11/24 12:36:58;;;;;;;19.10;7.60;;;;;;;9.68;59.72;99143.94;5276864;27;20057;-91
2022/11/24 12:39:33;;;;;;;14.90;7.03;;;;;;;9.71;59.71;99154.25;5295765;27;20057;-91
2022/11/24 12:42:19;;;;;;;13.55;6.95;;;;;;;9.69;59.72;99150.84;5277339;27;20412;-90
2022/11/24 12:45:25;;;;;;;14.60;6.75;;;;;;;9.86;59.72;99151.03;5297893;27;20108;-94
2022/11/24 12:48:16;;;;;;;14.93;6.25;;;;;;;9.91;59.73;99150.88;5278112;27;20074;-93
2022/11/24 12:50:46;;;;;;;14.50;7.95;;;;;;;9.88;59.73;99153.59;5288702;26;20096;-90
2022/11/24 12:53:20;;;;;;;;;;;;;;;9.97;59.73;99151.50;5278832;27;20175;-91
2022/11/24 12:55:46;;;;;;;15.50;6.85;;;;;;;9.91;59.72;99156.06;5260360;27;19991;-91
2022/11/24 12:59:11;;;;;;;14.93;7.07;;;;;;;9.60;59.71;99156.38;5259779;27;20429;-90
2022/11/24 13:02:05;;;;;;;14.60;7.22;;;;;;;9.71;59.71;99159.44;5261356;27;20056;-89
2022/11/24 13:04:39;;;;;;;11.95;6.00;;;;;;;9.67;59.71;99169.09;5277046;27;20045;-90
2022/11/24 13:07:10;;;;;;;12.57;6.40;;;;;;;9.54;59.71;99165.28;5274383;27;20076;-89
2022/11/24 13:09:36;;;;;;;15.20;7.03;;;;;;;9.35;59.70;99167.69;5275705;27;20060;-89
2022/11/24 13:12:11;;;;;;;15.65;6.72;;;;;;;9.39;59.70;99169.25;5275483;27;20062;-89
2022/11/24 13:14:37;;;;;;;15.77;7.22;;;;;;;9.51;59.71;99167.97;5295030;27;20085;-89
2022/11/24 13:17:25;;;;;;;14.68;7.12;;;;;;;9.45;59.70;99169.03;5279409;27;20077;-93
2022/11/24 13:19:50;;;;;;;18.73;8.07;;;;;;;9.49;59.71;99169.78;5278075;27;20057;-90
2022/11/24 13:22:22;;;;;;;14.45;6.55;;;;;;;9.59;59.71;99176.34;5277272;27;20192;-89
2022/11/24 13:32:39;;;;;;;14.43;6.12;;;;;;;9.72;59.71;99176.72;5233923;27;20524;-92
2022/11/24 13:35:23;;;;;;;12.20;6.72;;;;;;;9.78;59.72;99166.94;5214026;27;20064;-90
2022/11/24 13:41:31;;;;;;;14.38;7.15;;;;;;;9.47;59.70;99169.84;5278868;27;20069;-89
2022/11/24 13:44:24;;;;;;;16.27;6.68;;;;;;;9.52;59.71;99177.47;5333253;26;20080;-94
2022/11/24 13:47:23;;;;;;;;;;;;;;;;;;;;;
2022/11/24 13:52:39;;;;;;;15.07;7.30;;;;;;;9.62;59.71;99188.34;5370883;26;20472;-91
2022/11/24 14:42:55;;;;;;;16.77;8.23;;;;;;;9.50;59.71;99228.63;5133047;27;20203;-93
2022/11/24 14:49:05;;;;;;;14.93;7.25;;;;;;;9.33;59.69;99238.78;5199769;27;20104;-95
2022/11/24 15:05:52;;;;;;;19.65;8.25;;;;;;;9.47;59.70;99265.12;5316799;27;20057;-90
2022/11/24 15:12:40;;;;;;;;;;;;;;;;;;;;;
2022/11/24 15:15:16;;;;;;;21.02;8.70;;;;;;;9.08;59.68;99270.78;5330992;26;35748;-91
2022/11/24 16:14:25;;;;;;;22.60;9.50;;;;;;;8.28;59.63;99342.47;5266598;26;20074;-95
2022/11/24 16:16:51;;;;;;;19.30;9.65;;;;;;;8.37;59.65;99333.56;5301310;26;20064;-89
2022/11/24 16:25:46;;;;;;;22.77;9.70;;;;;;;8.03;59.62;99341.44;5292422;26;20036;-91
2022/11/24 16:28:34;;;;;;;18.33;8.95;;;;;;;7.98;59.62;99338.13;5287508;26;20056;-94
2022/11/24 16:30:59;;;;;;;20.37;9.48;;;;;;;7.87;59.62;99335.84;5323310;26;20071;-90
2022/11/24 16:33:25;;;;;;;23.42;9.68;;;;;;;7.73;59.61;99339.69;5322344;26;25587;-91
2022/11/24 16:35:50;;;;;;;20.00;9.38;;;;;;;7.88;59.62;99329.78;5286238;26;20060;-92
2022/11/24 16:38:26;;;;;;;;;;;;;;;;;;;;;
2022/11/24 16:41:11;;;;;;;21.23;9.07;;;;;;;7.51;59.60;99342.84;5307416;26;36439;-91
2022/11/24 16:47:45;;;;;;;24.65;9.35;;;;;;;7.41;59.59;99351.75;5316131;27;20032;-91
2022/11/24 16:58:52;;;;;;;29.15;13.07;;;;;;;7.17;59.57;99361.00;5302992;26;21202;-94
2022/11/24 17:01:33;;;;;;;23.77;11.48;;;;;;;7.18;59.59;99361.84;5362109;26;20060;-95
2022/11/24 17:07:22;;;;;;;19.83;9.80;;;;;;;7.19;59.59;99356.62;5321675;27;20032;-92
2022/11/24 17:19:11;;;;;;;26.35;10.45;;;;;;;7.09;59.57;99375.81;5321046;26;20068;-91
2022/11/24 17:21:37;;;;;;;23.90;11.18;;;;;;;7.15;59.57;99377.44;5282863;26;20083;-90
2022/11/24 18:42:50;;;;;;;31.02;12.00;;;;;;;6.89;59.56;99485.00;5282377;26;20148;-94
2022/11/24 18:45:54;;;;;;;;;;;;;;;;;;;;;
2022/11/24 18:48:33;;;;;;;;;;;;;;;;;;;;;
2022/11/24 18:51:07;;;;;;;27.63;12.10;;;;;;;6.82;59.56;99485.97;5286914;26;36054;-94
2022/11/24 18:53:56;;;;;;;27.48;12.35;;;;;;;6.75;59.55;99490.44;5283919;27;20103;-93
2022/11/24 18:56:39;;;;;;;25.90;11.25;;;;;;;6.72;59.55;99484.47;5298231;27;20468;-93
2022/11/24 18:59:15;;;;;;;32.60;12.75;;;;;;;6.61;59.55;99494.16;5281672;27;20659;-93
2022/11/24 19:01:45;;;;;;;29.70;13.45;;;;;;;6.56;59.54;99503.75;5281425;27;20064;-92
2022/11/24 19:04:16;;;;;;;27.10;12.70;;;;;;;6.72;59.55;99500.00;5282935;26;20112;-92
2022/11/24 19:06:41;;;;;;;29.73;13.98;;;;;;;6.47;59.54;99500.47;5283748;27;20048;-93
2022/11/24 19:09:11;;;;;;;29.30;13.30;;;;;;;6.59;59.55;99501.12;5282800;27;20420;-93
2022/11/24 19:11:38;;;;;;;32.10;13.05;;;;;;;6.59;59.55;99501.97;5359685;26;20033;-91
2022/11/24 19:14:05;;;;;;;29.08;14.13;;;;;;;6.72;59.55;99507.75;5283415;27;20075;-92
2022/11/24 19:16:33;;;;;;;39.67;16.02;;;;;;;6.62;59.54;99512.25;5283348;27;20078;-92
2022/11/24 19:19:00;;;;;;;31.80;13.90;;;;;;;6.64;59.54;99514.81;5283387;27;20068;-93
2022/11/24 19:21:26;;;;;;;36.60;18.12;;;;;;;6.66;59.55;99515.66;5283248;27;20064;-92
2022/11/24 19:23:56;;;;;;;34.55;17.37;;;;;;;6.58;59.55;99517.50;5358529;26;20407;-92
2022/11/24 19:26:21;;;;;;;30.80;14.75;;;;;;;6.56;59.54;99524.44;5283076;27;20101;-92
2022/11/24 19:28:47;;;;;;;30.90;12.65;;;;;;;6.53;59.54;99533.12;5282568;27;20398;-93
2022/11/24 19:31:14;;;;;;;29.08;12.95;;;;;;;6.55;59.54;99535.69;5358050;26;20079;-91
2022/11/24 19:33:39;;;;;;;29.63;12.30;;;;;;;6.52;59.54;99538.31;5282045;27;20158;-91
2022/11/24 19:36:18;;;;;;;29.67;12.93;;;;;;;6.33;59.53;99543.81;5282366;27;20056;-91
2022/11/24 19:38:54;;;;;;;26.95;11.80;;;;;;;6.11;59.51;99550.25;5297702;26;20078;-91
2022/11/24 19:43:49;;;;;;;37.65;16.10;;;;;;;6.21;59.53;99549.22;5294713;26;35666;-91
2022/11/24 19:46:15;;;;;;;30.83;14.82;;;;;;;6.20;59.53;99550.13;5242495;27;20112;-90
2022/11/24 19:48:42;;;;;;;28.80;14.15;;;;;;;6.40;59.53;99549.75;5242285;27;20069;-91
2022/11/24 19:51:54;;;;;;;26.98;12.40;;;;;;;6.24;59.52;99548.31;5277464;26;20064;-91
2022/11/24 19:54:19;;;;;;;22.60;10.90;;;;;;;6.41;59.53;99547.16;5257842;27;20049;-91
2022/11/24 19:56:45;;;;;;;27.52;12.35;;;;;;;6.28;59.53;99558.56;5241698;27;20135;-90
2022/11/24 20:02:14;;;;;;;27.40;11.68;;;;;;;6.36;59.53;99559.28;5284176;27;20117;-92
2022/11/24 20:04:43;;;;;;;27.75;11.43;;;;;;;6.43;59.54;99560.91;5243032;27;20101;-92
2022/11/24 20:07:09;;;;;;;29.00;12.30;;;;;;;6.50;59.54;99566.81;5259913;26;20057;-93
2022/11/24 20:09:34;;;;;;;30.60;12.50;;;;;;;6.57;59.54;99578.72;5242527;26;20278;-91
2022/11/24 20:11:59;;;;;;;27.83;12.15;;;;;;;6.51;59.55;99586.59;5242265;27;20067;-92
2022/11/24 20:14:25;;;;;;;25.80;11.88;;;;;;;6.34;59.53;99584.31;5242891;27;20061;-93
2022/11/24 20:17:57;;;;;;;27.37;12.80;;;;;;;6.44;59.54;99595.34;5243247;27;20114;-92
2022/11/24 20:20:22;;;;;;;34.83;12.85;;;;;;;6.64;59.54;99585.50;5258054;27;20065;-92
2022/11/24 20:23:17;;;;;;;35.85;13.43;;;;;;;6.66;59.55;99588.91;5278798;27;20064;-92
2022/11/24 20:25:43;;;;;;;27.58;13.55;;;;;;;6.53;59.54;99605.53;5278992;27;20064;-91
2022/11/24 20:28:08;;;;;;;35.60;15.43;;;;;;;6.57;59.54;99612.34;5241873;27;20049;-91
2022/11/24 20:30:33;;;;;;;38.50;16.17;;;;;;;6.54;59.54;99608.97;5260097;27;20075;-91
2022/11/24 20:32:59;;;;;;;39.58;15.63;;;;;;;6.58;59.55;99608.88;5242537;27;20120;-92
2022/11/24 20:35:24;;;;;;;39.80;15.50;;;;;;;6.45;59.54;99612.56;5260243;26;20477;-91
2022/11/24 20:37:50;;;;;;;43.75;16.05;;;;;;;6.21;59.53;99611.25;5259867;26;22570;-91
2022/11/24 20:40:19;;;;;;;36.58;15.93;;;;;;;6.17;59.52;99614.78;5259930;27;20057;-90
2022/11/24 20:42:44;;;;;;;33.80;14.18;;;;;;;6.10;59.52;99619.16;5245935;26;20116;-91
2022/11/24 20:45:09;;;;;;;29.12;14.02;;;;;;;6.10;59.52;99631.25;5255538;27;32276;-90
2022/11/24 20:47:35;;;;;;;32.38;15.02;;;;;;;6.39;59.53;99631.62;5219944;27;22543;-89
2022/11/24 20:50:00;;;;;;;29.40;14.63;;;;;;;6.46;59.54;99633.22;5255889;27;20337;-90
2022/11/24 20:52:26;;;;;;;35.47;14.07;;;;;;;6.53;59.54;99633.13;5238382;27;20069;-90
2022/11/24 20:54:56;;;;;;;33.53;14.20;;;;;;;6.72;59.55;99634.50;5237932;27;20079;-90
2022/11/24 20:57:21;;;;;;;32.42;15.27;;;;;;;6.61;59.55;99631.25;5256688;27;20045;-90
2022/11/24 20:59:47;;;;;;;31.50;12.90;;;;;;;6.42;59.54;99634.16;5237893;27;20117;-89
2022/11/24 21:02:12;;;;;;;30.17;13.32;;;;;;;6.44;59.54;99636.72;5257185;27;20069;-89
2022/11/24 21:04:37;;;;;;;29.50;13.82;;;;;;;6.25;59.52;99641.34;5256706;27;29272;-90
2022/11/24 21:07:03;;;;;;;38.08;13.93;;;;;;;6.21;59.53;99634.53;5252889;27;20317;-91
2022/11/24 21:09:29;;;;;;;27.95;14.00;;;;;;;6.12;59.51;99643.25;5258477;27;20054;-90
2022/11/24 21:11:54;;;;;;;31.77;13.70;;;;;;;6.10;59.52;99646.75;5256249;27;20088;-90
2022/11/24 21:14:20;;;;;;;29.17;13.00;;;;;;;6.05;59.51;99640.81;5238450;27;20451;-89
2022/11/24 21:16:45;;;;;;;27.92;13.15;;;;;;;5.91;59.51;99640.13;5220063;27;20319;-90
2022/11/24 21:19:13;;;;;;;28.85;13.07;;;;;;;5.81;59.50;99641.97;5256150;27;20076;-90
2022/11/24 21:21:39;;;;;;;31.42;12.90;;;;;;;5.83;59.50;99645.41;5256455;27;20413;-91
2022/11/24 21:24:08;;;;;;;29.52;12.75;;;;;;;5.81;59.50;99640.25;5255815;27;20070;-91
2022/11/24 21:26:35;;;;;;;30.55;14.00;;;;;;;5.94;59.51;99640.13;5257412;26;20053;-91
2022/11/24 21:29:01;;;;;;;26.60;11.75;;;;;;;5.69;59.50;99653.34;5256111;26;20492;-90
2022/11/24 21:31:26;;;;;;;39.95;15.18;;;;;;;5.67;59.49;99643.91;5238599;27;20077;-90
2022/11/24 21:33:52;;;;;;;33.33;13.93;;;;;;;5.72;59.49;99648.16;5256369;27;20409;-90
2022/11/24 21:36:19;;;;;;;29.98;13.27;;;;;;;5.71;59.50;99646.44;5220903;27;20110;-89
2022/11/24 21:38:49;;;;;;;31.48;13.23;;;;;;;5.73;59.49;99649.00;5256085;27;20080;-90
2022/11/24 21:41:14;;;;;;;;;;;;;;;5.53;59.49;99650.13;5239009;27;20124;-89
2022/11/24 21:43:40;;;;;;;29.80;12.93;;;;;;;5.67;59.49;99651.66;5291805;26;20269;-90
2022/11/24 21:46:07;;;;;;;31.92;13.30;;;;;;;5.54;59.49;99648.38;5259690;26;20087;-91
2022/11/24 21:48:36;;;;;;;30.15;13.00;;;;;;;5.56;59.49;99651.81;5259844;27;20061;-88
2022/11/24 21:51:03;;;;;;;37.17;13.75;;;;;;;5.59;59.49;99656.06;5278415;26;20061;-88
2022/11/24 21:53:29;;;;;;;31.12;13.25;;;;;;;5.62;59.49;99656.88;5276815;26;20817;-89
2022/11/24 21:55:55;;;;;;;31.48;13.30;;;;;;;5.46;59.49;99651.09;5276889;27;20107;-88
2022/11/24 21:58:21;;;;;;;32.78;14.55;;;;;;;5.53;59.49;99657.87;5259181;26;20065;-91
2022/11/24 22:00:46;;;;;;;35.17;14.90;;;;;;;5.46;59.48;99661.41;5259049;27;20075;-90
2022/11/24 22:03:12;;;;;;;37.67;13.90;;;;;;;5.56;59.49;99662.12;5276628;27;27216;-89
2022/11/24 22:05:37;;;;;;;37.65;15.25;;;;;;;5.20;59.47;99668.59;5276861;27;21195;-89
2022/11/24 22:08:03;;;;;;;37.38;14.43;;;;;;;5.12;59.46;99680.72;5258405;27;20436;-88
2022/11/24 22:10:28;;;;;;;32.72;13.70;;;;;;;5.11;59.46;99686.75;5258575;27;20070;-89
2022/11/24 22:12:53;;;;;;;36.50;15.07;;;;;;;5.21;59.47;99683.22;5276029;27;20120;-89
2022/11/24 22:15:19;;;;;;;32.10;14.18;;;;;;;5.12;59.46;99691.91;5276840;27;20038;-88
2022/11/24 22:17:44;;;;;;;33.83;14.90;;;;;;;5.32;59.48;99699.44;5276063;27;22816;-89
2022/11/24 22:20:10;;;;;;;33.17;13.55;;;;;;;5.27;59.47;99693.47;5258809;27;20114;-90
2022/11/24 22:22:35;;;;;;;33.22;14.35;;;;;;;5.21;59.46;99699.56;5276823;27;20060;-88
2022/11/24 22:25:01;;;;;;;30.23;13.98;;;;;;;5.12;59.46;99696.22;5297498;27;20072;-88
2022/11/24 22:27:26;;;;;;;32.78;13.48;;;;;;;5.22;59.46;99697.84;5278259;27;20053;-89
2022/11/24 22:29:51;;;;;;;32.75;14.63;;;;;;;5.30;59.46;99702.91;5278700;27;20084;-88
2022/11/24 22:32:17;;;;;;;34.53;15.45;;;;;;;5.19;59.47;99703.84;5276027;26;20384;-88
2022/11/24 22:34:42;;;;;;;32.45;14.85;;;;;;;5.08;59.45;99700.56;5261782;27;22148;-89
2022/11/24 22:37:07;;;;;;;37.45;15.25;;;;;;;5.15;59.46;99707.34;5259058;27;24583;-89
2022/11/24 22:39:33;;;;;;;31.87;14.57;;;;;;;5.18;59.47;99707.31;5278037;27;20100;-89
2022/11/24 22:41:58;;;;;;;41.85;15.10;;;;;;;5.23;59.46;99709.88;5240909;26;20053;-88
2022/11/24 22:44:24;;;;;;;35.78;14.38;;;;;;;5.17;59.47;99713.34;5277665;26;20099;-89
2022/11/24 22:46:49;;;;;;;33.40;13.88;;;;;;;5.20;59.47;99720.19;5259605;26;20104;-89
2022/11/24 22:49:15;;;;;;;35.78;15.13;;;;;;;5.22;59.46;99728.81;5260052;27;20140;-88
2022/11/24 22:51:40;;;;;;;39.97;15.02;;;;;;;5.21;59.47;99724.50;5258161;27;34488;-89
2022/11/24 22:54:06;;;;;;;30.98;14.55;;;;;;;5.15;59.46;99727.13;5277357;27;20079;-90
2022/11/24 22:56:32;;;;;;;34.60;13.98;;;;;;;5.30;59.47;99726.13;5277297;27;20133;-89
2022/11/24 22:58:58;;;;;;;31.10;14.27;;;;;;;5.24;59.46;99729.63;5277324;27;20060;-88
2022/11/24 23:01:24;;;;;;;35.70;14.27;;;;;;;5.10;59.46;99726.34;5277744;27;20048;-87
2022/11/24 23:03:52;;;;;;;30.00;13.45;;;;;;;5.11;59.46;99736.63;5259821;27;20045;-87
2022/11/24 23:06:21;;;;;;;38.05;14.02;;;;;;;5.11;59.46;99730.62;5259532;26;20080;-88
2022/11/24 23:08:47;;;;;;;26.27;12.25;;;;;;;5.08;59.46;99730.66;5278433;27;20084;-89
2022/11/24 23:11:27;;;;;;;31.48;13.52;;;;;;;5.37;59.47;99730.34;5259808;26;20057;-89
2022/11/24 23:13:54;;;;;;;28.55;13.60;;;;;;;4.98;59.45;99739.38;5280003;26;20075;-89
2022/11/24 23:16:19;;;;;;;32.65;13.60;;;;;;;5.07;59.46;99729.81;5259787;27;20057;-88
2022/11/24 23:18:45;;;;;;;28.52;13.10;;;;;;;4.92;59.45;99732.53;5276864;27;26327;-87
2022/11/24 23:21:12;;;;;;;31.35;14.15;;;;;;;5.09;59.46;99737.53;5259933;27;20053;-88
2022/11/24 23:23:37;;;;;;;30.35;14.30;;;;;;;4.99;59.45;99733.34;5278270;27;20192;-89
2022/11/24 23:26:04;;;;;;;29.98;13.48;;;;;;;5.12;59.47;99738.34;5258990;27;26141;-89
2022/11/24 23:28:30;;;;;;;32.30;13.70;;;;;;;5.27;59.47;99734.75;5278095;27;20053;-88
2022/11/24 23:31:02;;;;;;;32.88;13.75;;;;;;;5.13;59.46;99742.63;5259161;27;25711;-88
2022/11/24 23:33:28;;;;;;;32.40;13.20;;;;;;;5.05;59.46;99747.03;5259914;27;20052;-90
2022/11/24 23:35:53;;;;;;;30.02;14.05;;;;;;;5.13;59.46;99744.34;5259642;27;20159;-88
2022/11/24 23:38:19;;;;;;;31.20;13.48;;;;;;;4.95;59.46;99742.81;5258827;27;30645;-87
2022/11/24 23:40:44;;;;;;;38.30;15.77;;;;;;;5.31;59.47;99743.31;5277365;26;21906;-87
2022/11/24 23:43:10;;;;;;;42.00;16.42;;;;;;;5.23;59.46;99746.00;5277552;26;20060;-89
2022/11/24 23:45:35;;;;;;;40.15;16.08;;;;;;;5.33;59.48;99747.59;5295643;27;22803;-88